sensor_id;sensor_type;location;lat;lon;timestamp;pressure;altitude;pressure_sealevel;temperature;humidity
77725;BME280;66892;53.236;6.550;2023-04-24T00:01:56;99812.06;;;10.62;98.45
77725;BME280;66892;53.236;6.550;2023-04-24T00:04:24;99812.19;;;10.56;98.43
77725;BME280;66892;53.236;6.550;2023-04-24T00:06:51;99814.78;;;10.57;98.99
77725;BME280;66892;53.236;6.550;2023-04-24T00:09:22;99817.50;;;10.54;98.58
77725;BME280;66892;53.236;6.550;2023-04-24T00:11:50;99805.22;;;10.50;98.98
77725;BME280;66892;53.236;6.550;2023-04-24T00:14:16;99808.81;;;10.49;98.93
77725;BME280;66892;53.236;6.550;2023-04-24T00:16:42;99802.59;;;10.50;98.78
77725;BME280;66892;53.236;6.550;2023-04-24T00:19:08;99800.81;;;10.52;99.17
77725;BME280;66892;53.236;6.550;2023-04-24T00:21:35;99795.53;;;10.52;99.76
77725;BME280;66892;53.236;6.550;2023-04-24T00:24:01;99793.63;;;10.59;100.00
77725;BME280;66892;53.236;6.550;2023-04-24T00:26:27;99789.19;;;10.59;99.58
77725;BME280;66892;53.236;6.550;2023-04-24T00:28:54;99788.22;;;10.64;100.00
77725;BME280;66892;53.236;6.550;2023-04-24T00:31:20;99794.38;;;10.66;99.40
77725;BME280;66892;53.236;6.550;2023-04-24T00:33:46;99788.22;;;10.64;99.30
77725;BME280;66892;53.236;6.550;2023-04-24T00:36:12;99783.88;;;10.63;99.61
77725;BME280;66892;53.236;6.550;2023-04-24T00:38:38;99783.88;;;10.61;98.87
77725;BME280;66892;53.236;6.550;2023-04-24T00:41:04;99772.47;;;10.59;98.86
77725;BME280;66892;53.236;6.550;2023-04-24T00:43:31;99775.97;;;10.59;98.80
77725;BME280;66892;53.236;6.550;2023-04-24T00:45:58;99768.03;;;10.59;99.09
77725;BME280;66892;53.236;6.550;2023-04-24T00:48:27;99773.31;;;10.61;99.24
77725;BME280;66892;53.236;6.550;2023-04-24T00:50:53;99773.44;;;10.55;98.49
77725;BME280;66892;53.236;6.550;2023-04-24T00:53:19;99777.09;;;10.49;97.58
77725;BME280;66892;53.236;6.550;2023-04-24T00:55:46;99786.78;;;10.47;97.93
77725;BME280;66892;53.236;6.550;2023-04-24T00:58:12;99780.88;;;10.36;97.09
77725;BME280;66892;53.236;6.550;2023-04-24T01:00:38;99779.09;;;10.37;97.52
77725;BME280;66892;53.236;6.550;2023-04-24T01:03:06;99775.72;;;10.29;96.91
77725;BME280;66892;53.236;6.550;2023-04-24T01:05:32;99774.06;;;10.23;96.66
77725;BME280;66892;53.236;6.550;2023-04-24T01:07:59;99777.66;;;10.21;96.39
77725;BME280;66892;53.236;6.550;2023-04-24T01:10:27;99780.38;;;10.15;97.53
77725;BME280;66892;53.236;6.550;2023-04-24T01:12:55;99786.59;;;10.11;96.76
77725;BME280;66892;53.236;6.550;2023-04-24T01:15:21;99787.50;;;10.10;96.81
77725;BME280;66892;53.236;6.550;2023-04-24T01:17:47;99784.91;;;10.06;96.87
77725;BME280;66892;53.236;6.550;2023-04-24T01:20:15;99778.81;;;10.03;96.78
77725;BME280;66892;53.236;6.550;2023-04-24T01:22:42;99777.00;;;10.05;96.97
77725;BME280;66892;53.236;6.550;2023-04-24T01:25:09;99777.91;;;10.04;96.60
77725;BME280;66892;53.236;6.550;2023-04-24T01:27:35;99772.56;;;10.07;97.77
77725;BME280;66892;53.236;6.550;2023-04-24T01:30:01;99771.72;;;10.05;97.64
77725;BME280;66892;53.236;6.550;2023-04-24T01:32:27;99782.31;;;10.03;97.42
77725;BME280;66892;53.236;6.550;2023-04-24T01:34:54;99777.91;;;10.04;98.07
77725;BME280;66892;53.236;6.550;2023-04-24T01:37:20;99775.28;;;10.02;97.50
77725;BME280;66892;53.236;6.550;2023-04-24T01:39:48;99770.13;;;9.96;96.89
77725;BME280;66892;53.236;6.550;2023-04-24T01:42:14;99771.88;;;9.97;97.27
77725;BME280;66892;53.236;6.550;2023-04-24T01:44:40;99767.53;;;9.93;97.72
77725;BME280;66892;53.236;6.550;2023-04-24T01:47:07;99770.34;;;9.83;97.79
77725;BME280;66892;53.236;6.550;2023-04-24T01:49:34;99766.78;;;9.87;98.45
77725;BME280;66892;53.236;6.550;2023-04-24T01:52:00;99766.81;;;9.85;97.89
77725;BME280;66892;53.236;6.550;2023-04-24T01:54:26;99761.63;;;9.79;98.34
77725;BME280;66892;53.236;6.550;2023-04-24T01:56:53;99758.03;;;9.85;97.72
77725;BME280;66892;53.236;6.550;2023-04-24T01:59:20;99758.03;;;9.85;97.71
77725;BME280;66892;53.236;6.550;2023-04-24T02:01:47;99752.69;;;9.86;98.87
77725;BME280;66892;53.236;6.550;2023-04-24T02:04:13;99754.44;;;9.87;97.95
77725;BME280;66892;53.236;6.550;2023-04-24T02:06:40;99765.97;;;9.83;98.18
77725;BME280;66892;53.236;6.550;2023-04-24T02:09:06;99759.78;;;9.84;97.75
77725;BME280;66892;53.236;6.550;2023-04-24T02:11:33;99758.91;;;9.84;98.00
77725;BME280;66892;53.236;6.550;2023-04-24T02:14:00;99764.25;;;9.81;97.08
77725;BME280;66892;53.236;6.550;2023-04-24T02:16:27;99761.66;;;9.76;98.42
77725;BME280;66892;53.236;6.550;2023-04-24T02:18:55;99766.91;;;9.79;98.15
77725;BME280;66892;53.236;6.550;2023-04-24T02:21:21;99758.97;;;9.81;97.65
77725;BME280;66892;53.236;6.550;2023-04-24T02:23:47;99769.41;;;9.88;97.42
77725;BME280;66892;53.236;6.550;2023-04-24T02:26:13;99766.72;;;9.90;97.58
77725;BME280;66892;53.236;6.550;2023-04-24T02:28:39;99761.59;;;9.82;97.38
77725;BME280;66892;53.236;6.550;2023-04-24T02:31:07;99773.00;;;9.83;98.14
77725;BME280;66892;53.236;6.550;2023-04-24T02:33:33;99761.66;;;9.78;98.06
77725;BME280;66892;53.236;6.550;2023-04-24T02:35:59;99763.41;;;9.79;98.04
77725;BME280;66892;53.236;6.550;2023-04-24T02:38:25;99761.59;;;9.82;97.79
77725;BME280;66892;53.236;6.550;2023-04-24T02:40:51;99764.22;;;9.82;97.48
77725;BME280;66892;53.236;6.550;2023-04-24T02:43:18;99758.09;;;9.80;98.08
77725;BME280;66892;53.236;6.550;2023-04-24T02:45:44;99758.97;;;9.82;98.22
77725;BME280;66892;53.236;6.550;2023-04-24T02:48:11;99754.56;;;9.81;97.77
77725;BME280;66892;53.236;6.550;2023-04-24T02:50:37;99764.19;;;9.85;97.70
77725;BME280;66892;53.236;6.550;2023-04-24T02:53:03;99761.59;;;9.82;97.89
77725;BME280;66892;53.236;6.550;2023-04-24T02:55:29;99765.91;;;9.86;98.72
77725;BME280;66892;53.236;6.550;2023-04-24T02:57:56;99762.31;;;9.89;97.62
77725;BME280;66892;53.236;6.550;2023-04-24T03:00:22;99764.19;;;9.85;98.43
77725;BME280;66892;53.236;6.550;2023-04-24T03:02:48;99767.59;;;9.92;97.55
77725;BME280;66892;53.236;6.550;2023-04-24T03:05:16;99764.06;;;9.90;97.30
77725;BME280;66892;53.236;6.550;2023-04-24T03:07:42;99758.81;;;9.90;97.88
77725;BME280;66892;53.236;6.550;2023-04-24T03:10:09;99763.25;;;9.88;98.56
77725;BME280;66892;53.236;6.550;2023-04-24T03:12:35;99768.38;;;9.95;98.17
77725;BME280;66892;53.236;6.550;2023-04-24T03:15:01;99767.53;;;9.95;97.63
77725;BME280;66892;53.236;6.550;2023-04-24T03:17:27;99770.13;;;9.96;97.37
77725;BME280;66892;53.236;6.550;2023-04-24T03:19:53;99779.81;;;9.96;98.01
77725;BME280;66892;53.236;6.550;2023-04-24T03:22:20;99767.53;;;9.93;98.06
77725;BME280;66892;53.236;6.550;2023-04-24T03:24:46;99773.69;;;9.94;98.31
77725;BME280;66892;53.236;6.550;2023-04-24T03:27:12;99775.41;;;9.96;99.02
77725;BME280;66892;53.236;6.550;2023-04-24T03:29:38;99779.75;;;9.99;98.36
77725;BME280;66892;53.236;6.550;2023-04-24T03:32:04;99779.69;;;10.02;98.06
77725;BME280;66892;53.236;6.550;2023-04-24T03:34:30;99774.41;;;10.03;97.95
77725;BME280;66892;53.236;6.550;2023-04-24T03:36:56;99782.31;;;10.03;97.74
77725;BME280;66892;53.236;6.550;2023-04-24T03:39:23;99775.34;;;9.99;98.24
77725;BME280;66892;53.236;6.550;2023-04-24T03:41:50;99782.44;;;9.97;98.42
77725;BME280;66892;53.236;6.550;2023-04-24T03:44:17;99781.50;;;10.00;98.35
77725;BME280;66892;53.236;6.550;2023-04-24T03:46:42;99778.81;;;10.03;98.48
77725;BME280;66892;53.236;6.550;2023-04-24T03:49:08;99780.56;;;10.04;98.60
77725;BME280;66892;53.236;6.550;2023-04-24T03:51:35;99774.41;;;10.02;99.03
77725;BME280;66892;53.236;6.550;2023-04-24T03:54:01;99778.78;;;10.04;98.53
77725;BME280;66892;53.236;6.550;2023-04-24T03:56:28;99773.56;;;10.01;98.01
77725;BME280;66892;53.236;6.550;2023-04-24T03:58:54;99777.94;;;10.02;98.94
77725;BME280;66892;53.236;6.550;2023-04-24T04:01:21;99777.06;;;10.02;99.00
77725;BME280;66892;53.236;6.550;2023-04-24T04:03:47;99782.38;;;10.00;98.84
77725;BME280;66892;53.236;6.550;2023-04-24T04:06:13;99787.69;;;9.99;98.28
77725;BME280;66892;53.236;6.550;2023-04-24T04:08:39;99786.84;;;9.98;98.79
77725;BME280;66892;53.236;6.550;2023-04-24T04:11:05;99785.09;;;9.97;98.13
77725;BME280;66892;53.236;6.550;2023-04-24T04:13:33;99789.41;;;10.01;97.75
77725;BME280;66892;53.236;6.550;2023-04-24T04:15:59;99791.19;;;10.01;97.83
77725;BME280;66892;53.236;6.550;2023-04-24T04:18:25;99789.50;;;9.95;98.20
77725;BME280;66892;53.236;6.550;2023-04-24T04:20:51;99788.66;;;9.95;97.84
77725;BME280;66892;53.236;6.550;2023-04-24T04:23:17;99795.66;;;9.96;98.46
77725;BME280;66892;53.236;6.550;2023-04-24T04:25:43;99797.41;;;9.97;97.62
77725;BME280;66892;53.236;6.550;2023-04-24T04:28:09;99803.53;;;9.99;97.36
77725;BME280;66892;53.236;6.550;2023-04-24T04:30:37;99806.16;;;10.00;97.81
77725;BME280;66892;53.236;6.550;2023-04-24T04:33:04;99808.84;;;9.97;97.97
77725;BME280;66892;53.236;6.550;2023-04-24T04:35:30;99810.53;;;10.01;97.00
77725;BME280;66892;53.236;6.550;2023-04-24T04:37:56;99820.34;;;9.95;97.57
77725;BME280;66892;53.236;6.550;2023-04-24T04:40:24;99818.53;;;9.97;97.59
77725;BME280;66892;53.236;6.550;2023-04-24T04:42:50;99820.41;;;9.92;98.20
77725;BME280;66892;53.236;6.550;2023-04-24T04:45:18;99824.84;;;9.88;98.29
77725;BME280;66892;53.236;6.550;2023-04-24T04:47:46;99830.09;;;9.90;98.67
77725;BME280;66892;53.236;6.550;2023-04-24T04:50:12;99829.31;;;9.85;99.06
77725;BME280;66892;53.236;6.550;2023-04-24T04:52:38;99833.78;;;9.81;99.68
77725;BME280;66892;53.236;6.550;2023-04-24T04:55:04;99846.09;;;9.81;99.25
77725;BME280;66892;53.236;6.550;2023-04-24T04:57:31;99851.38;;;9.79;98.88
77725;BME280;66892;53.236;6.550;2023-04-24T04:59:57;99851.47;;;9.75;99.27
77725;BME280;66892;53.236;6.550;2023-04-24T05:02:23;99844.38;;;9.78;99.59
77725;BME280;66892;53.236;6.550;2023-04-24T05:04:50;99849.63;;;9.80;99.57
77725;BME280;66892;53.236;6.550;2023-04-24T05:07:16;99857.44;;;9.86;99.54
77725;BME280;66892;53.236;6.550;2023-04-24T05:09:42;99859.09;;;9.93;99.09
77725;BME280;66892;53.236;6.550;2023-04-24T05:12:09;99859.13;;;9.90;99.39
77725;BME280;66892;53.236;6.550;2023-04-24T05:14:35;99856.44;;;9.93;99.25
77725;BME280;66892;53.236;6.550;2023-04-24T05:17:01;99871.38;;;9.95;98.96
77725;BME280;66892;53.236;6.550;2023-04-24T05:19:28;99863.44;;;9.97;98.58
77725;BME280;66892;53.236;6.550;2023-04-24T05:21:55;99858.16;;;9.95;99.18
77725;BME280;66892;53.236;6.550;2023-04-24T05:24:21;99866.13;;;9.94;99.74
77725;BME280;66892;53.236;6.550;2023-04-24T05:26:47;99869.59;;;9.97;99.12
77725;BME280;66892;53.236;6.550;2023-04-24T05:29:13;99870.53;;;9.93;99.47
77725;BME280;66892;53.236;6.550;2023-04-24T05:31:39;99882.78;;;9.97;99.29
77725;BME280;66892;53.236;6.550;2023-04-24T05:34:05;99879.28;;;9.98;99.42
77725;BME280;66892;53.236;6.550;2023-04-24T05:36:32;99881.88;;;10.00;98.95
77725;BME280;66892;53.236;6.550;2023-04-24T05:38:59;99896.84;;;9.99;98.74
77725;BME280;66892;53.236;6.550;2023-04-24T05:41:25;99897.75;;;9.97;98.16
77725;BME280;66892;53.236;6.550;2023-04-24T05:43:51;99896.00;;;9.97;97.95
77725;BME280;66892;53.236;6.550;2023-04-24T05:46:37;99900.47;;;9.92;98.95
77725;BME280;66892;53.236;6.550;2023-04-24T05:49:03;99902.28;;;9.89;98.85
77725;BME280;66892;53.236;6.550;2023-04-24T05:51:29;99904.97;;;9.87;98.91
77725;BME280;66892;53.236;6.550;2023-04-24T05:53:56;99907.59;;;9.87;99.81
77725;BME280;66892;53.236;6.550;2023-04-24T05:56:23;99912.16;;;9.78;98.28
77725;BME280;66892;53.236;6.550;2023-04-24T05:58:49;99920.84;;;9.83;97.39
77725;BME280;66892;53.236;6.550;2023-04-24T06:01:15;99920.94;;;9.77;97.77
77725;BME280;66892;53.236;6.550;2023-04-24T06:03:42;99930.75;;;9.69;98.42
77725;BME280;66892;53.236;6.550;2023-04-24T06:06:08;99927.22;;;9.70;98.35
77725;BME280;66892;53.236;6.550;2023-04-24T06:08:34;99934.25;;;9.72;98.90
77725;BME280;66892;53.236;6.550;2023-04-24T06:11:01;99933.28;;;9.76;97.68
77725;BME280;66892;53.236;6.550;2023-04-24T06:13:28;99942.19;;;9.69;98.61
77725;BME280;66892;53.236;6.550;2023-04-24T06:15:54;99937.81;;;9.68;98.62
77725;BME280;66892;53.236;6.550;2023-04-24T06:18:20;99946.59;;;9.69;98.09
77725;BME280;66892;53.236;6.550;2023-04-24T06:20:46;99956.28;;;9.67;97.93
77725;BME280;66892;53.236;6.550;2023-04-24T06:23:12;99955.41;;;9.68;97.71
77725;BME280;66892;53.236;6.550;2023-04-24T06:25:38;99959.84;;;9.66;98.53
77725;BME280;66892;53.236;6.550;2023-04-24T06:28:04;99953.66;;;9.67;98.16
77725;BME280;66892;53.236;6.550;2023-04-24T06:30:32;99950.97;;;9.71;98.30
77725;BME280;66892;53.236;6.550;2023-04-24T06:32:58;99964.09;;;9.76;97.99
77725;BME280;66892;53.236;6.550;2023-04-24T06:35:24;99965.00;;;9.75;97.84
77725;BME280;66892;53.236;6.550;2023-04-24T06:37:50;99959.72;;;9.75;97.67
77725;BME280;66892;53.236;6.550;2023-04-24T06:40:16;99976.41;;;9.77;96.78
77725;BME280;66892;53.236;6.550;2023-04-24T06:42:44;99970.31;;;9.72;97.75
77725;BME280;66892;53.236;6.550;2023-04-24T06:45:10;99981.81;;;9.69;98.16
77725;BME280;66892;53.236;6.550;2023-04-24T06:47:38;99980.88;;;9.72;98.31
77725;BME280;66892;53.236;6.550;2023-04-24T06:50:05;99982.69;;;9.67;98.39
77725;BME280;66892;53.236;6.550;2023-04-24T06:52:31;99981.69;;;9.77;97.80
77725;BME280;66892;53.236;6.550;2023-04-24T06:55:01;99985.28;;;9.73;97.57
77725;BME280;66892;53.236;6.550;2023-04-24T06:57:28;99990.56;;;9.71;96.01
77725;BME280;66892;53.236;6.550;2023-04-24T06:59:54;99997.56;;;9.74;97.07
77725;BME280;66892;53.236;6.550;2023-04-24T07:02:20;99998.47;;;9.73;96.46
77725;BME280;66892;53.236;6.550;2023-04-24T07:04:47;100004.69;;;9.67;96.97
77725;BME280;66892;53.236;6.550;2023-04-24T07:07:14;100022.38;;;9.61;96.33
77725;BME280;66892;53.236;6.550;2023-04-24T07:09:40;100008.31;;;9.59;96.34
77725;BME280;66892;53.236;6.550;2023-04-24T07:12:11;100018.03;;;9.53;97.60
77725;BME280;66892;53.236;6.550;2023-04-24T07:14:37;100016.31;;;9.51;97.12
77725;BME280;66892;53.236;6.550;2023-04-24T07:17:04;100015.44;;;9.50;97.65
77725;BME280;66892;53.236;6.550;2023-04-24T07:19:31;100022.56;;;9.47;96.86
77725;BME280;66892;53.236;6.550;2023-04-24T07:21:58;100023.38;;;9.50;97.02
77725;BME280;66892;53.236;6.550;2023-04-24T07:24:24;100026.88;;;9.52;96.52
77725;BME280;66892;53.236;6.550;2023-04-24T07:26:51;100034.00;;;9.46;97.06
77725;BME280;66892;53.236;6.550;2023-04-24T07:29:17;100039.31;;;9.41;97.61
77725;BME280;66892;53.236;6.550;2023-04-24T07:31:43;100041.06;;;9.42;96.88
77725;BME280;66892;53.236;6.550;2023-04-24T07:34:09;100044.56;;;9.44;97.22
77725;BME280;66892;53.236;6.550;2023-04-24T07:36:36;100042.88;;;9.40;96.70
77725;BME280;66892;53.236;6.550;2023-04-24T07:39:05;100055.16;;;9.41;96.91
77725;BME280;66892;53.236;6.550;2023-04-24T07:41:31;100054.22;;;9.44;96.54
77725;BME280;66892;53.236;6.550;2023-04-24T07:43:57;100058.56;;;9.52;96.26
77725;BME280;66892;53.236;6.550;2023-04-24T07:46:24;100063.88;;;9.48;96.36
77725;BME280;66892;53.236;6.550;2023-04-24T07:48:50;100066.50;;;9.48;95.00
77725;BME280;66892;53.236;6.550;2023-04-24T07:51:16;100069.22;;;9.42;95.01
77725;BME280;66892;53.236;6.550;2023-04-24T07:53:43;100075.41;;;9.38;94.72
77725;BME280;66892;53.236;6.550;2023-04-24T07:56:10;100073.66;;;9.40;95.26
77725;BME280;66892;53.236;6.550;2023-04-24T07:58:36;100082.44;;;9.39;93.49
77725;BME280;66892;53.236;6.550;2023-04-24T08:01:02;100100.97;;;9.33;94.03
77725;BME280;66892;53.236;6.550;2023-04-24T08:03:28;100089.63;;;9.28;94.77
77725;BME280;66892;53.236;6.550;2023-04-24T08:05:55;100096.69;;;9.23;94.74
77725;BME280;66892;53.236;6.550;2023-04-24T08:08:21;100108.97;;;9.27;95.36
77725;BME280;66892;53.236;6.550;2023-04-24T08:10:48;100111.63;;;9.24;94.64
77725;BME280;66892;53.236;6.550;2023-04-24T08:13:16;100113.41;;;9.20;94.71
77725;BME280;66892;53.236;6.550;2023-04-24T08:15:42;100115.22;;;9.15;96.01
77725;BME280;66892;53.236;6.550;2023-04-24T08:18:08;100122.19;;;9.22;94.84
77725;BME280;66892;53.236;6.550;2023-04-24T08:20:34;100121.31;;;9.23;94.39
77725;BME280;66892;53.236;6.550;2023-04-24T08:23:01;100125.66;;;9.26;94.00
77725;BME280;66892;53.236;6.550;2023-04-24T08:25:27;100137.09;;;9.25;94.28
77725;BME280;66892;53.236;6.550;2023-04-24T08:27:53;100141.59;;;9.15;94.89
77725;BME280;66892;53.236;6.550;2023-04-24T08:30:20;100148.63;;;9.18;95.04
77725;BME280;66892;53.236;6.550;2023-04-24T08:32:47;100153.06;;;9.11;93.96
77725;BME280;66892;53.236;6.550;2023-04-24T08:35:13;100153.09;;;9.08;94.59
77725;BME280;66892;53.236;6.550;2023-04-24T08:37:39;100163.63;;;9.10;94.83
77725;BME280;66892;53.236;6.550;2023-04-24T08:40:09;100165.38;;;9.09;93.30
77725;BME280;66892;53.236;6.550;2023-04-24T08:42:38;100173.41;;;8.98;92.88
77725;BME280;66892;53.236;6.550;2023-04-24T08:45:06;100179.66;;;8.81;92.94
77725;BME280;66892;53.236;6.550;2023-04-24T08:47:33;100182.28;;;8.84;93.91
77725;BME280;66892;53.236;6.550;2023-04-24T08:50:02;100188.44;;;8.83;93.77
77725;BME280;66892;53.236;6.550;2023-04-24T08:52:29;100184.09;;;8.76;92.70
77725;BME280;66892;53.236;6.550;2023-04-24T08:54:56;100192.03;;;8.73;93.69
77725;BME280;66892;53.236;6.550;2023-04-24T08:57:22;100192.88;;;8.75;92.24
77725;BME280;66892;53.236;6.550;2023-04-24T08:59:50;100205.16;;;8.77;92.62
77725;BME280;66892;53.236;6.550;2023-04-24T09:02:16;100215.78;;;8.70;92.14
77725;BME280;66892;53.236;6.550;2023-04-24T09:04:45;100215.78;;;8.68;92.35
77725;BME280;66892;53.236;6.550;2023-04-24T09:07:12;100218.44;;;8.61;89.86
77725;BME280;66892;53.236;6.550;2023-04-24T09:09:38;100221.09;;;8.58;89.36
77725;BME280;66892;53.236;6.550;2023-04-24T09:12:04;100223.69;;;8.61;89.13
77725;BME280;66892;53.236;6.550;2023-04-24T09:14:31;100225.47;;;8.62;89.16
77725;BME280;66892;53.236;6.550;2023-04-24T09:16:57;100221.91;;;8.67;89.24
77725;BME280;66892;53.236;6.550;2023-04-24T09:19:23;100228.06;;;8.68;90.49
77725;BME280;66892;53.236;6.550;2023-04-24T09:21:52;100239.44;;;8.74;88.69
77725;BME280;66892;53.236;6.550;2023-04-24T09:24:20;100243.81;;;8.80;88.60
77725;BME280;66892;53.236;6.550;2023-04-24T09:26:49;100239.44;;;8.79;89.10
77725;BME280;66892;53.236;6.550;2023-04-24T09:29:15;100241.16;;;8.84;88.28
77725;BME280;66892;53.236;6.550;2023-04-24T09:31:45;100230.63;;;8.81;88.18
77725;BME280;66892;53.236;6.550;2023-04-24T09:34:12;100253.44;;;8.88;86.31
77725;BME280;66892;53.236;6.550;2023-04-24T09:36:39;100244.66;;;8.83;86.85
77725;BME280;66892;53.236;6.550;2023-04-24T09:39:09;100250.81;;;8.88;89.06
77725;BME280;66892;53.236;6.550;2023-04-24T09:41:44;100252.56;;;8.83;89.28
77725;BME280;66892;53.236;6.550;2023-04-24T09:44:12;100259.63;;;8.83;88.67
77725;BME280;66892;53.236;6.550;2023-04-24T09:46:38;100271.03;;;8.80;89.80
77725;BME280;66892;53.236;6.550;2023-04-24T09:49:08;100271.97;;;8.79;89.94
77725;BME280;66892;53.236;6.550;2023-04-24T09:51:35;100277.22;;;8.73;87.81
77725;BME280;66892;53.236;6.550;2023-04-24T09:54:02;100276.34;;;8.74;89.86
77725;BME280;66892;53.236;6.550;2023-04-24T09:56:32;100283.34;;;8.86;87.35
77725;BME280;66892;53.236;6.550;2023-04-24T09:59:04;100284.09;;;9.05;86.19
77725;BME280;66892;53.236;6.550;2023-04-24T10:01:31;100283.13;;;9.21;83.70
77725;BME280;66892;53.236;6.550;2023-04-24T10:03:57;100296.16;;;9.43;81.39
77725;BME280;66892;53.236;6.550;2023-04-24T10:06:31;100296.09;;;9.48;81.76
77725;BME280;66892;53.236;6.550;2023-04-24T10:08:57;100295.13;;;9.63;80.08
77725;BME280;66892;53.236;6.550;2023-04-24T10:11:25;100308.25;;;9.72;78.62
77725;BME280;66892;53.236;6.550;2023-04-24T10:13:53;100304.69;;;9.74;78.80
77725;BME280;66892;53.236;6.550;2023-04-24T10:16:21;100319.53;;;9.86;78.51
77725;BME280;66892;53.236;6.550;2023-04-24T10:18:48;100316.00;;;9.90;77.71
77725;BME280;66892;53.236;6.550;2023-04-24T10:21:14;100317.59;;;10.06;77.16
77725;BME280;66892;53.236;6.550;2023-04-24T10:23:41;100327.31;;;10.04;74.97
77725;BME280;66892;53.236;6.550;2023-04-24T10:26:09;100315.84;;;10.08;75.54
77725;BME280;66892;53.236;6.550;2023-04-24T10:28:36;100333.47;;;10.06;75.69
77725;BME280;66892;53.236;6.550;2023-04-24T10:31:03;100328.91;;;10.26;75.28
77725;BME280;66892;53.236;6.550;2023-04-24T10:33:30;100339.38;;;10.37;74.21
77725;BME280;66892;53.236;6.550;2023-04-24T10:35:57;100342.75;;;10.49;75.39
77725;BME280;66892;53.236;6.550;2023-04-24T10:38:25;100350.75;;;10.43;73.31
77725;BME280;66892;53.236;6.550;2023-04-24T10:40:57;100349.09;;;10.32;73.06
77725;BME280;66892;53.236;6.550;2023-04-24T10:43:23;100353.44;;;10.37;74.14
77725;BME280;66892;53.236;6.550;2023-04-24T10:46:04;100355.34;;;10.23;75.41
77725;BME280;66892;53.236;6.550;2023-04-24T10:48:32;100353.59;;;10.22;72.72
77725;BME280;66892;53.236;6.550;2023-04-24T10:50:58;100365.13;;;10.11;74.04
77725;BME280;66892;53.236;6.550;2023-04-24T10:53:28;100367.75;;;10.12;75.16
77725;BME280;66892;53.236;6.550;2023-04-24T10:55:57;100374.75;;;10.21;74.75
77725;BME280;66892;53.236;6.550;2023-04-24T10:58:25;100368.47;;;10.34;75.00
77725;BME280;66892;53.236;6.550;2023-04-24T11:01:01;100401.03;;;10.34;73.03
77725;BME280;66892;53.236;6.550;2023-04-24T11:03:29;100376.53;;;10.19;72.92
77725;BME280;66892;53.236;6.550;2023-04-24T11:05:58;100383.50;;;10.24;75.36
77725;BME280;66892;53.236;6.550;2023-04-24T11:08:37;100426.63;;;10.32;73.14
77725;BME280;66892;53.236;6.550;2023-04-24T11:11:08;100395.03;;;10.19;72.09
77725;BME280;66892;53.236;6.550;2023-04-24T11:14:00;100398.59;;;10.10;72.12
77725;BME280;66892;53.236;6.550;2023-04-24T11:16:28;100395.19;;;9.94;72.96
77725;BME280;66892;53.236;6.550;2023-04-24T11:19:04;100408.53;;;9.78;72.00
77725;BME280;66892;53.236;6.550;2023-04-24T11:21:40;100412.09;;;9.71;73.92
77725;BME280;66892;53.236;6.550;2023-04-24T11:27:07;100411.94;;;9.90;72.83
77725;BME280;66892;53.236;6.550;2023-04-24T11:29:41;100403.94;;;9.99;73.17
77725;BME280;66892;53.236;6.550;2023-04-24T11:32:26;100405.78;;;9.94;74.39
77725;BME280;66892;53.236;6.550;2023-04-24T11:34:55;100416.44;;;9.82;74.56
77725;BME280;66892;53.236;6.550;2023-04-24T11:37:22;100414.72;;;9.75;74.78
77725;BME280;66892;53.236;6.550;2023-04-24T11:39:53;100414.66;;;9.81;75.09
77725;BME280;66892;53.236;6.550;2023-04-24T11:42:20;100412.91;;;9.80;75.09
77725;BME280;66892;53.236;6.550;2023-04-24T11:44:47;100424.34;;;9.81;75.10
77725;BME280;66892;53.236;6.550;2023-04-24T11:47:13;100422.53;;;9.87;72.53
77725;BME280;66892;53.236;6.550;2023-04-24T11:49:39;100420.66;;;10.03;72.18
77725;BME280;66892;53.236;6.550;2023-04-24T11:52:07;100428.63;;;9.95;73.46
77725;BME280;66892;53.236;6.550;2023-04-24T11:54:33;100431.28;;;9.92;73.89
77725;BME280;66892;53.236;6.550;2023-04-24T11:57:04;100440.16;;;9.87;72.91
77725;BME280;66892;53.236;6.550;2023-04-24T11:59:35;100439.22;;;9.92;72.99
77725;BME280;66892;53.236;6.550;2023-04-24T12:02:01;100447.16;;;9.91;73.22
77725;BME280;66892;53.236;6.550;2023-04-24T12:04:38;100446.38;;;9.78;74.79
77725;BME280;66892;53.236;6.550;2023-04-24T12:07:04;100462.34;;;9.56;75.58
77725;BME280;66892;53.236;6.550;2023-04-24T12:09:45;100457.09;;;9.52;78.44
77725;BME280;66892;53.236;6.550;2023-04-24T12:12:12;100466.72;;;9.61;79.28
77725;BME280;66892;53.236;6.550;2023-04-24T12:14:43;100469.34;;;9.61;77.46
77725;BME280;66892;53.236;6.550;2023-04-24T12:17:09;100464.09;;;9.60;77.10
77725;BME280;66892;53.236;6.550;2023-04-24T12:19:35;100471.06;;;9.71;76.81
77725;BME280;66892;53.236;6.550;2023-04-24T12:22:02;100466.59;;;9.85;76.35
77725;BME280;66892;53.236;6.550;2023-04-24T12:24:28;100471.75;;;10.00;73.60
77725;BME280;66892;53.236;6.550;2023-04-24T12:26:56;100471.63;;;10.23;72.10
77725;BME280;66892;53.236;6.550;2023-04-24T12:29:22;100480.41;;;10.25;69.93
77725;BME280;66892;53.236;6.550;2023-04-24T12:31:49;100475.06;;;10.33;70.82
77725;BME280;66892;53.236;6.550;2023-04-24T12:34:19;100482.78;;;10.57;69.88
77725;BME280;66892;53.236;6.550;2023-04-24T12:36:46;100480.81;;;10.79;68.37
77725;BME280;66892;53.236;6.550;2023-04-24T12:39:14;100486.16;;;10.73;69.32
77725;BME280;66892;53.236;6.550;2023-04-24T12:41:56;100480.88;;;10.71;68.83
77725;BME280;66892;53.236;6.550;2023-04-24T12:44:29;100488.16;;;10.45;67.99
77725;BME280;66892;53.236;6.550;2023-04-24T12:46:55;100490.84;;;10.40;67.45
77725;BME280;66892;53.236;6.550;2023-04-24T12:49:21;100495.34;;;10.29;68.82
77725;BME280;66892;53.236;6.550;2023-04-24T12:51:47;100491.00;;;10.24;68.80
77725;BME280;66892;53.236;6.550;2023-04-24T12:54:13;100494.59;;;10.14;68.63
77725;BME280;66892;53.236;6.550;2023-04-24T12:56:39;100496.44;;;9.93;69.28
77725;BME280;66892;53.236;6.550;2023-04-24T12:59:07;100503.63;;;9.72;70.31
77725;BME280;66892;53.236;6.550;2023-04-24T13:01:33;100512.47;;;9.62;71.77
77725;BME280;66892;53.236;6.550;2023-04-24T13:03:59;100506.31;;;9.53;71.35
77725;BME280;66892;53.236;6.550;2023-04-24T13:06:25;100508.13;;;9.50;72.91